Fairbanks, AK

9:38 PM AKST on February 23, 2017 (GMT -0900)
200 Slater Dr. | | Change Station
Active Advisory: Winter Weather Advisory

Elev 450 ft 64.84 °N, 147.70 °W | Updated 14 seconds ago

Mostly Cloudy
Mostly Cloudy
23.5 °F
Feels Like 24 °F
N
0.0
Wind Variable Wind from WNW
Gusts 0.0 mph

Today
High -- | Low -- °F
--% Chance of Precip.
Yesterday
High -- | Low -- °F
Precip. -- in
Pressure 30.15 in
Visibility 10.0 miles
Clouds Few 6000 ft
Mostly Cloudy 7500 ft
Windchill 24 °F
Dew Point 21 °F
Humidity 91%
Rainfall 0.00 in
Snow Depth Not available.
8:19 AM 5:49 PM
Waning Crescent, 6% visible
METAR PAFB 240558Z 00000KT 10SM FEW060 BKN075 M05/M07 A3012 RMK AO2A SNB22E32 SLP210 P0000 60000 4/026 T10551067 11045 21085 55010 $
Pressure 30.15 in
Visibility 10.0 miles
Clouds Few 6000 ft
Mostly Cloudy 7500 ft
Windchill 24 °F
Dew Point 21 °F
Humidity 91%
Rainfall 0.00 in
Snow Depth Not available.
8:19 AM 5:49 PM
Waning Crescent, 6% visible
METAR PAFB 240558Z 00000KT 10SM FEW060 BKN075 M05/M07 A3012 RMK AO2A SNB22E32 SLP210 P0000 60000 4/026 T10551067 11045 21085 55010 $

Get Your Daily Forecast Email!

Thanks for signing up!

Be on the lookout for a verification email in your inbox.

You'll start receiving the daily forecast at 8 AM.

×

10-Day Weather Forecast

Almanac

Astronomy

Feb. 23, 2017 Rise Set
Actual Time
Civil Twilight
Nautical Twilight
Astronomical Twilight
Moon
Length of Visible Light
Length of Day
Tomorrow will be .
, % of the Moon is Illuminated

Today's Extremes

State Highs State Lows

Community

WunderPhotos

Upload Photos

1,962,540 photos uploaded!

WunderBlog® & News

Nearby

Air Quality

  Air Quality AQ Index Pollutant
Not available.

Snow Depth

Station Depth Elevation

Earthquake Activity

City Distance Mag. Time & Date
Minimum magnitude displayed is 2.5.

Coastal Water Temperatures

Place Temperature

Stations

Nearby Weather Stations

Station Location Temp. Windchill Dew Point Humidity Wind Precip. Elev Updated Type
                   

Watches & Warnings

Winter Weather Advisory
Issued: 5:47 PM AKST Feb. 23, 2017 – National Weather Service

... Winter Weather Advisory remains in effect until 9 am akst
Friday...

* snow... additional 2 to 4 inches for storm total of 5 to 9
inches.

* Freezing rain... a chance of very light freezing rain or freezing
drizzle before midnight. No significant accumulation is
expected.

* Timing... snow will develop by late evening and become heavy at
times overnight, then taper off Friday morning.

* Impacts... visibility may be greatly reduced. Travel and
outdoor activities will be difficult.

Precautionary/preparedness actions...

A Winter Weather Advisory means that one or more winter weather
hazards are expected to cause travel difficulties.